Terminal Aerodrome Forecast
Issued by NWS

Home | Current Version | Previous Version | Text Only | Print | Product List | Glossary On
Versions: 1 2 3 4 5 6 7 8 9 10 11 12
000
FTUS45 KABQ 231732
TAFTCC
TAF
KTCC 231732Z 2318/2418 16015G25KT P6SM VCTS BKN035CB
     FM231900 19018G26KT 4SM TSRA BR OVC025CB
     FM232200 17015G25KT P6SM VCTS OVC040CB
      TEMPO 2322/2402 4SM RA BR OVC025
     FM240200 16013KT 2SM RA BR OVC009
     FM240900 19011KT 4SM BR VCSH BKN015
     FM241500 21012G20KT P6SM BKN040=

USA.gov is the U.S. government's official web portal to all federal, state and local government web resources and services.